»·PEaware :: N786SC KSBP-KBFL

N786SC :: KSBP-KBFL

FLIGHT INFORMATION

Flight Status: Arrived
Operator: Privately registered:
United States
More flights under this callsign
Pilot: Jereme M. (20698)
Aircraft: CESSNA 172 SKYHAWK
(C172)
More flights by this aircraft type
Origin: KSBP San Luis Co Regl
United States
Destination: KBFL Meadows
United States
More flights between these airports :: More routes between these airports
Route: FLW
File this flight plan on PilotEdge
Remarks:
Altitude:
(Current/Filed)
7,500ft
Speed:
(Current/Filed)
110kts
Departed: 08-Oct-18 03:17 PM
Arrived: 08-Oct-18 04:11 PM
Distance/Time
Traveled:
79nm/0:53
Distance/Time
To Go:
Arrived

Flight Plot

Page will automatically refresh every two minutes.

Flight plan parsing failed; only flown route is shown


Map Options




Map Legend


Flown Route
Filed Route
Departure Airport
Arrival Airport
Navaid (VOR, NDB)
Fix

Horizontal Profiles

Position Reports

Time Latitude Longitude Heading Altitude Ground
Speed
08-Oct-18 14:48 35.234338 -120.632942 126 215ft 0kts
08-Oct-18 14:49 35.234338 -120.632942 126 215ft 0kts
08-Oct-18 14:50 35.234338 -120.632942 126 215ft 0kts
08-Oct-18 14:51 35.234338 -120.632942 126 215ft 0kts
08-Oct-18 14:52 35.234338 -120.632942 126 215ft 0kts
08-Oct-18 14:53 35.234338 -120.632942 126 215ft 0kts
08-Oct-18 14:54 35.234338 -120.632942 126 215ft 0kts
08-Oct-18 14:55 35.234338 -120.632942 126 215ft 0kts
08-Oct-18 14:56 35.234338 -120.632942 126 215ft 0kts
08-Oct-18 14:57 35.234338 -120.632942 126 215ft 0kts
08-Oct-18 14:58 35.234338 -120.632942 126 215ft 0kts
08-Oct-18 14:59 35.234338 -120.632942 126 215ft 0kts
08-Oct-18 15:00 35.234338 -120.632942 126 215ft 0kts
08-Oct-18 15:01 35.234338 -120.632942 126 215ft 0kts
08-Oct-18 15:02 35.234338 -120.632942 126 215ft 0kts
08-Oct-18 15:03 35.234338 -120.632942 126 215ft 0kts
08-Oct-18 15:04 35.234338 -120.632942 126 215ft 0kts
08-Oct-18 15:05 35.234338 -120.632942 126 215ft 0kts
08-Oct-18 15:06 35.234338 -120.632942 126 215ft 0kts
08-Oct-18 15:07 35.234338 -120.632942 126 215ft 0kts
08-Oct-18 15:08 35.234338 -120.632942 126 215ft 0kts
08-Oct-18 15:09 35.234338 -120.632942 126 215ft 0kts
08-Oct-18 15:10 35.234338 -120.632942 126 215ft 0kts
08-Oct-18 15:11 35.234338 -120.632942 126 215ft 0kts
08-Oct-18 15:12 35.234338 -120.632942 126 215ft 0kts
08-Oct-18 15:13 35.234001 -120.633233 124 215ft 9kts
08-Oct-18 15:14 35.233216 -120.631958 207 215ft 0kts
08-Oct-18 15:15 35.233198 -120.632433 220 215ft 0kts
08-Oct-18 15:16 35.233198 -120.632433 220 215ft 0kts
08-Oct-18 15:17 35.233198 -120.632433 220 215ft 0kts
08-Oct-18 15:18 35.232946 -120.632647 216 215ft 8kts
08-Oct-18 15:19 35.241245 -120.648539 303 606ft 85kts
08-Oct-18 15:20 35.231505 -120.663852 136 1374ft 90kts
08-Oct-18 15:21 35.220020 -120.637731 111 2172ft 85kts
08-Oct-18 15:22 35.214307 -120.610295 99 2937ft 83kts
08-Oct-18 15:23 35.209756 -120.582284 100 3635ft 84kts
08-Oct-18 15:24 35.204988 -120.554696 100 4333ft 81kts
08-Oct-18 15:25 35.200301 -120.527327 100 4952ft 84kts
08-Oct-18 15:26 35.195477 -120.498985 100 5552ft 85kts
08-Oct-18 15:27 35.190723 -120.471015 100 6148ft 82kts
08-Oct-18 15:28 35.186075 -120.443189 99 6668ft 85kts
08-Oct-18 15:29 35.181680 -120.414449 99 7168ft 86kts
08-Oct-18 15:30 35.177185 -120.384925 99 7508ft 100kts
08-Oct-18 15:31 35.171674 -120.348905 100 7513ft 110kts
08-Oct-18 15:32 35.166181 -120.312683 100 7513ft 111kts
08-Oct-18 15:33 35.161149 -120.279318 100 7513ft 111kts
08-Oct-18 15:34 35.155570 -120.242141 100 7513ft 111kts
08-Oct-18 15:35 35.150032 -120.204970 100 7513ft 111kts
08-Oct-18 15:36 35.144541 -120.167846 100 7513ft 111kts
08-Oct-18 15:37 35.139085 -120.130721 100 7513ft 111kts
08-Oct-18 15:38 35.133794 -120.097652 100 7513ft 111kts
08-Oct-18 15:39 35.127888 -120.060660 100 7513ft 111kts
08-Oct-18 15:40 35.122001 -120.023442 100 7513ft 111kts
08-Oct-18 15:41 35.115791 -119.986896 101 7512ft 111kts
08-Oct-18 15:42 35.109470 -119.949933 101 7512ft 111kts
08-Oct-18 15:43 35.103184 -119.912949 101 7512ft 111kts
08-Oct-18 15:44 35.096938 -119.875944 101 7512ft 111kts
08-Oct-18 15:45 35.106789 -119.841347 61 7508ft 111kts
08-Oct-18 15:46 35.121610 -119.808195 61 7508ft 111kts
08-Oct-18 15:47 35.136817 -119.775315 61 7508ft 111kts
08-Oct-18 15:48 35.150127 -119.743186 62 7508ft 111kts
08-Oct-18 15:49 35.164136 -119.709376 62 7508ft 111kts
08-Oct-18 15:50 35.178106 -119.675785 62 7508ft 111kts
08-Oct-18 15:51 35.192254 -119.641801 62 7168ft 112kts
08-Oct-18 15:52 35.206299 -119.608171 62 6669ft 111kts
08-Oct-18 15:53 35.220340 -119.574643 62 6169ft 110kts
08-Oct-18 15:54 35.231998 -119.546878 62 5752ft 109kts
08-Oct-18 15:55 35.247992 -119.508903 62 5166ft 105kts
08-Oct-18 15:56 35.259158 -119.482474 62 4749ft 104kts
08-Oct-18 15:57 35.274711 -119.445780 62 4167ft 104kts
08-Oct-18 15:58 35.288216 -119.413994 62 3669ft 107kts
08-Oct-18 15:59 35.299715 -119.387037 62 3478ft 108kts
08-Oct-18 16:00 35.314056 -119.353485 61 3480ft 113kts
08-Oct-18 16:01 35.328610 -119.319582 62 3481ft 115kts
08-Oct-18 16:02 35.343551 -119.284806 62 3481ft 116kts
08-Oct-18 16:03 35.358648 -119.249712 62 3255ft 117kts
08-Oct-18 16:04 35.373887 -119.214379 62 2754ft 117kts
08-Oct-18 16:05 35.389105 -119.179188 62 2254ft 117kts
08-Oct-18 16:06 35.407152 -119.147315 35 1749ft 109kts
08-Oct-18 16:07 35.418733 -119.122536 121 1520ft 85kts
08-Oct-18 16:08 35.417104 -119.094725 76 1519ft 85kts
08-Oct-18 16:09 35.415563 -119.066504 128 1501ft 89kts
08-Oct-18 16:10 35.401557 -119.048415 136 1451ft 74kts
08-Oct-18 16:11 35.407999 -119.031951 25 1246ft 65kts
08-Oct-18 16:12 35.420914 -119.043782 303 779ft 68kts
08-Oct-18 16:13 35.432121 -119.057626 314 510ft 35kts
08-Oct-18 16:14 35.434767 -119.060102 44 510ft 0kts
08-Oct-18 16:15 35.434767 -119.060102 44 510ft 0kts
08-Oct-18 16:16 35.435325 -119.055790 136 510ft 26kts
08-Oct-18 16:17 35.430722 -119.050200 135 510ft 20kts
08-Oct-18 16:18 35.429425 -119.046570 125 510ft 0kts
08-Oct-18 16:19 35.429425 -119.046570 125 510ft 0kts
08-Oct-18 16:20 35.429425 -119.046570 125 510ft 0kts
08-Oct-18 16:21 35.429425 -119.046570 125 510ft 0kts
08-Oct-18 16:22 35.429425 -119.046570 125 510ft 0kts
08-Oct-18 16:23 35.429425 -119.046570 125 510ft 0kts
08-Oct-18 16:24 35.429425 -119.046570 125 510ft 0kts
08-Oct-18 16:25 35.429425 -119.046570 125 510ft 0kts
08-Oct-18 16:26 35.429425 -119.046570 125 510ft 0kts
08-Oct-18 16:27 35.429425 -119.046570 125 510ft 0kts

Navigation Log

Ident Type
Flight plan parsing failed, navigation log unavailable